Airport ICAO


20:22 UTC

21°C

Clear skies


An affordable passengers' Moving Map for your aircraft. Made for the iPad and the iPhone
More information here

LFPT Cormeilles En Vexin


Pontoise FRANCE   VFR CAVOK


METAR LFPT 162000Z AUTO 36007KT CAVOK 21/10 Q1014 0h22min





NOTAMS

OPEN